Cheddleton, United Kingdom
Current Conditions -  °F | °C
As of 2:20 PM on Wednesday 22 Oct 2014 (Local Time) from EGCC Reporting Station
Broken Clouds Broken Clouds  
Wind Chill: 52°   Ceiling: 3500
Heat Index: 52°   Visibility: 6mi
Dew Point: 50°   Wind: 9mph
Humidity: 94%   Direction: 240°WSW
Pressure: 30.21"   Gusts: NA
Location:  53.07°N, 2.04°W
Report Text: EGCC 221320Z 24008KT 9999 FEW017 SCT029 BKN035 11/10 Q1023
Loading
Personal Weather Stations






























Interactive Weather Map
Tropical Storm Tracking
New forecast layout! Learn more

10-Day Weather Forecast

Advertisements
Track Severe Weather on mobile